ADDS METAR Data INFO
IDs: Format: Raw Decoded Include TAF

Data at: 2226 UTC 24 Jun 2018

KALS 242219Z AUTO 01015G23KT 10SM VCTS CLR 24/M06 A3004 RMK AO2 PK WND 01027/2155 T02441056
KALS 242152Z AUTO 36015KT 10SM CLR 25/M04 A3003 RMK AO2 PK WND 01035/2110 WSHFT 2044 SLP074 T02501039
KALS 242058Z AUTO 01019G30KT 10SM CLR 27/M02 A3001 RMK AO2 PK WND 01030/2054 WSHFT 2044 T02671022
KALS 242052Z AUTO 03022G36KT 10SM CLR 29/M03 A3002 RMK AO2 PK WND 25039/1953 SLP059 T02891033 55011
KALS 241952Z AUTO 25026G38KT 10SM CLR 29/M06 A3001 RMK AO2 PK WND 26039/1938 LTG DSNT N SLP054 T02891061
KALS 241852Z AUTO 25021G40KT 10SM CLR 29/M09 A3002 RMK AO2 PK WND 25041/1834 SLP059 T02941089
KALS 241752Z AUTO 20012G18KT 10SM CLR 26/M04 A3006 RMK AO2 SLP070 T02611044 10261 20044 58008
KALS 241652Z AUTO VRB06KT 10SM CLR 24/M05 A3007 RMK AO2 SLP073 T02391050
KALS 241552Z AUTO 10006G15KT 10SM CLR 22/M02 A3008 RMK AO2 SLP073 T02221017
KALS 241452Z AUTO 09004KT 10SM CLR 18/00 A3009 RMK AO2 SLP081 T01830000 51010
KALS 241352Z AUTO 00000KT 10SM CLR 13/M03 A3009 RMK AO2 SLP086 T01281033
KALS 241252Z AUTO 14003KT 10SM CLR 09/M02 A3006 RMK AO2 SLP082 T00891017
KALS 241152Z AUTO 04003KT 10SM CLR 04/M04 A3005 RMK AO2 SLP086 T00441039 10139 20044 53008
KALS 241052Z AUTO 08006KT 10SM CLR 06/M04 A3004 RMK AO2 SLP080 T00561044
KALS 240952Z AUTO VRB03KT 10SM CLR 09/M05 A3002 RMK AO2 SLP067 T00891050
KALS 240852Z AUTO 20010KT 10SM CLR 09/M06 A3002 RMK AO2 SLP060 T00941056 56005
KALS 240752Z AUTO 23007KT 10SM CLR 11/M05 A3002 RMK AO2 SLP060 T01061050
KALS 240652Z AUTO 21008KT 10SM CLR 09/M05 A3003 RMK AO2 SLP070 T00941050 402940044
KALS 240552Z AUTO 21007KT 10SM CLR 14/M06 A3004 RMK AO2 SLP067 T01391061 10278 20139 51004
KALS 240452Z AUTO 29006KT 10SM CLR 17/M07 A3004 RMK AO2 SLP067 T01671067
KALS 240352Z AUTO 29011KT 10SM CLR 19/M07 A3005 RMK AO2 SLP067 T01941067
KALS 240252Z AUTO 26011KT 10SM CLR 21/M06 A3002 RMK AO2 SLP062 T02111061 53007
KALS 240152Z AUTO 26011G24KT 10SM CLR 24/M05 A3001 RMK AO2 SLP057 T02441050
KALS 240052Z AUTO 23007KT 10SM CLR 27/M07 A2999 RMK AO2 SLP059 T02671067
KALS 232352Z AUTO 23007KT 10SM CLR 28/M07 A3000 RMK AO2 SLP062 T02781072 10294 20244 56013
KALS 232252Z AUTO 16008KT 10SM CLR 27/M07 A3001 RMK AO2 SLP068 T02721072
KALS 232152Z AUTO 00000KT 10SM CLR 27/M09 A3002 RMK AO2 SLP064 T02721094
KALS 232052Z AUTO 35007G19KT 320V040 10SM CLR 29/M09 A3005 RMK AO2 SLP077 T02941089 56016
KALS 231952Z AUTO 07003KT 10SM CLR 28/M10 A3006 RMK AO2 SLP080 T02781100
KALS 231852Z AUTO VRB06KT 10SM CLR 27/M09 A3008 RMK AO2 SLP076 T02671089
KALS 231752Z AUTO 06006KT 10SM CLR 24/M04 A3010 RMK AO2 SLP084 T02441039 10250 20056 58012
KALS 231652Z AUTO VRB03KT 10SM CLR 22/M06 A3012 RMK AO2 SLP096 T02221061
KALS 231552Z AUTO 08005KT 10SM CLR 20/M03 A3013 RMK AO2 SLP099 T02001033
KALS 231452Z AUTO 11005KT 10SM CLR 17/M02 A3015 RMK AO2 SLP102 T01721017 51006
KALS 231352Z AUTO 00000KT 10SM CLR 14/M04 A3014 RMK AO2 SLP100 T01391039
KALS 231252Z AUTO 00000KT 10SM CLR 08/M03 A3014 RMK AO2 SLP110 T00831033
KALS 231152Z AUTO 26003KT 10SM CLR 06/M04 A3012 RMK AO2 SLP105 T00611044 10167 20044 53002
KALS 231052Z AUTO 00000KT 10SM CLR 07/M04 A3012 RMK AO2 SLP100 T00671044